Terminal Aerodrome Forecast
Issued by NWS

Home | Current Version | Previous Version | Text Only | Print | Product List | Glossary On
Versions: 1 2 3 4 5 6 7 8 9 10 11 12 13 14 15 16 17 18 19
000
FTUS43 KAPX 230500
TAFPLN
TAF
KPLN 230524Z 2306/2406 00000KT P6SM SKC
     FM231400 17004KT P6SM SCT250
     FM240000 00000KT P6SM OVC070=

USA.gov is the U.S. government's official web portal to all federal, state and local government web resources and services.